sensor_id;sensor_type;location;lat;lon;timestamp;pressure;altitude;pressure_sealevel;temperature;humidity
75996;BME280;64681;49.738;9.004;2023-04-02T00:13:17;98640.13;;;10.17;79.81
75996;BME280;64681;49.738;9.004;2023-04-02T00:15:49;98643.31;;;10.39;78.77
75996;BME280;64681;49.738;9.004;2023-04-02T00:18:19;98649.44;;;10.39;78.42
75996;BME280;64681;49.738;9.004;2023-04-02T00:20:55;98652.34;;;10.34;78.80
75996;BME280;64681;49.738;9.004;2023-04-02T00:23:25;98660.94;;;10.27;78.99
75996;BME280;64681;49.738;9.004;2023-04-02T00:25:51;98658.78;;;10.33;79.13
75996;BME280;64681;49.738;9.004;2023-04-02T00:28:22;98671.59;;;10.27;80.08
75996;BME280;64681;49.738;9.004;2023-04-02T00:31:14;98666.19;;;10.08;80.20
75996;BME280;64681;49.738;9.004;2023-04-02T00:33:42;98664.63;;;9.91;80.39
75996;BME280;64681;49.738;9.004;2023-04-02T00:36:08;98671.25;;;9.97;80.64
75996;BME280;64681;49.738;9.004;2023-04-02T00:38:34;98667.78;;;9.80;81.03
75996;BME280;64681;49.738;9.004;2023-04-02T00:41:06;98667.78;;;9.96;80.67
75996;BME280;64681;49.738;9.004;2023-04-02T00:43:36;98667.03;;;9.96;80.49
75996;BME280;64681;49.738;9.004;2023-04-02T00:46:14;98672.28;;;9.92;80.90
75996;BME280;64681;49.738;9.004;2023-04-02T00:48:45;98677.34;;;9.81;81.33
75996;BME280;64681;49.738;9.004;2023-04-02T00:53:44;98668.41;;;9.90;80.80
75996;BME280;64681;49.738;9.004;2023-04-02T00:56:39;98668.19;;;10.11;80.66
75996;BME280;64681;49.738;9.004;2023-04-02T00:59:26;98670.31;;;10.05;80.57
75996;BME280;64681;49.738;9.004;2023-04-02T01:05:19;98675.41;;;10.10;79.73
75996;BME280;64681;49.738;9.004;2023-04-02T01:13:41;98676.25;;;9.98;79.72
75996;BME280;64681;49.738;9.004;2023-04-02T01:22:34;98682.00;;;9.85;80.79
75996;BME280;64681;49.738;9.004;2023-04-02T01:24:56;98678.16;;;9.70;81.84
75996;BME280;64681;49.738;9.004;2023-04-02T01:27:28;98676.44;;;9.77;80.41
75996;BME280;64681;49.738;9.004;2023-04-02T01:29:59;98691.44;;;9.82;80.57
75996;BME280;64681;49.738;9.004;2023-04-02T01:32:29;98692.03;;;9.75;81.43
75996;BME280;64681;49.738;9.004;2023-04-02T01:34:56;98698.59;;;9.65;81.41
75996;BME280;64681;49.738;9.004;2023-04-02T01:45:28;98706.94;;;9.92;81.21
75996;BME280;64681;49.738;9.004;2023-04-02T01:47:54;98717.03;;;9.99;81.13
75996;BME280;64681;49.738;9.004;2023-04-02T01:53:01;98728.66;;;9.78;80.97
75996;BME280;64681;49.738;9.004;2023-04-02T01:55:55;98724.03;;;10.04;80.52
75996;BME280;64681;49.738;9.004;2023-04-02T01:58:24;98723.75;;;10.09;80.57
75996;BME280;64681;49.738;9.004;2023-04-02T02:01:01;98717.63;;;10.08;80.48
75996;BME280;64681;49.738;9.004;2023-04-02T02:03:29;98723.84;;;10.12;79.70
75996;BME280;64681;49.738;9.004;2023-04-02T02:05:56;98728.31;;;10.08;80.18
75996;BME280;64681;49.738;9.004;2023-04-02T02:08:37;98736.06;;;10.13;80.03
75996;BME280;64681;49.738;9.004;2023-04-02T02:11:05;98740.69;;;10.01;80.31
75996;BME280;64681;49.738;9.004;2023-04-02T02:13:31;98739.91;;;10.00;80.26
75996;BME280;64681;49.738;9.004;2023-04-02T02:16:02;98745.09;;;10.09;80.53
75996;BME280;64681;49.738;9.004;2023-04-02T02:18:28;98744.50;;;10.16;79.77
75996;BME280;64681;49.738;9.004;2023-04-02T02:20:57;98743.38;;;10.17;79.48
75996;BME280;64681;49.738;9.004;2023-04-02T02:23:27;98754.00;;;10.29;79.31
75996;BME280;64681;49.738;9.004;2023-04-02T02:25:54;98746.94;;;10.21;79.64
75996;BME280;64681;49.738;9.004;2023-04-02T02:28:32;98741.28;;;10.38;79.01
75996;BME280;64681;49.738;9.004;2023-04-02T02:31:14;98750.53;;;10.41;78.09
75996;BME280;64681;49.738;9.004;2023-04-02T02:33:51;98764.06;;;10.20;79.46
75996;BME280;64681;49.738;9.004;2023-04-02T02:36:42;98760.75;;;10.10;79.47
75996;BME280;64681;49.738;9.004;2023-04-02T02:39:28;98763.69;;;10.05;80.47
75996;BME280;64681;49.738;9.004;2023-04-02T02:42:08;98758.53;;;10.12;80.20
75996;BME280;64681;49.738;9.004;2023-04-02T02:44:42;98756.59;;;9.97;80.37
75996;BME280;64681;49.738;9.004;2023-04-02T02:47:28;98771.69;;;10.05;79.81
75996;BME280;64681;49.738;9.004;2023-04-02T02:50:02;98772.03;;;10.04;79.87
75996;BME280;64681;49.738;9.004;2023-04-02T02:52:35;98774.88;;;10.11;79.25
75996;BME280;64681;49.738;9.004;2023-04-02T02:57:39;98778.97;;;10.08;80.53
75996;BME280;64681;49.738;9.004;2023-04-02T03:00:08;98774.34;;;10.05;79.83
75996;BME280;64681;49.738;9.004;2023-04-02T03:02:40;98782.38;;;9.93;80.61
75996;BME280;64681;49.738;9.004;2023-04-02T03:05:09;98783.53;;;9.92;80.78
75996;BME280;64681;49.738;9.004;2023-04-02T03:07:40;98791.84;;;9.90;81.02
75996;BME280;64681;49.738;9.004;2023-04-02T03:13:04;98792.81;;;9.98;80.21
75996;BME280;64681;49.738;9.004;2023-04-02T03:20:47;98800.78;;;10.10;79.97
75996;BME280;64681;49.738;9.004;2023-04-02T03:23:53;98793.59;;;9.98;79.65
75996;BME280;64681;49.738;9.004;2023-04-02T03:28:58;98801.13;;;10.09;80.10
75996;BME280;64681;49.738;9.004;2023-04-02T03:31:34;98806.81;;;10.07;80.00
75996;BME280;64681;49.738;9.004;2023-04-02T03:34:28;98817.97;;;10.13;79.58
75996;BME280;64681;49.738;9.004;2023-04-02T03:43:02;98819.44;;;10.10;79.93
75996;BME280;64681;49.738;9.004;2023-04-02T03:45:36;98833.25;;;10.00;79.79
75996;BME280;64681;49.738;9.004;2023-04-02T03:51:06;98836.00;;;10.16;79.50
75996;BME280;64681;49.738;9.004;2023-04-02T03:53:36;98844.53;;;10.22;79.38
75996;BME280;64681;49.738;9.004;2023-04-02T03:56:02;98842.19;;;10.20;79.03
75996;BME280;64681;49.738;9.004;2023-04-02T03:58:41;98845.94;;;10.32;78.52
75996;BME280;64681;49.738;9.004;2023-04-02T04:03:47;98858.59;;;10.06;79.42
75996;BME280;64681;49.738;9.004;2023-04-02T04:06:27;98858.88;;;10.17;79.86
75996;BME280;64681;49.738;9.004;2023-04-02T04:09:00;98863.34;;;10.13;79.16
75996;BME280;64681;49.738;9.004;2023-04-02T04:11:34;98865.59;;;10.11;79.65
75996;BME280;64681;49.738;9.004;2023-04-02T04:14:17;98867.47;;;10.10;80.12
75996;BME280;64681;49.738;9.004;2023-04-02T04:16:58;98867.56;;;10.14;79.07
75996;BME280;64681;49.738;9.004;2023-04-02T04:22:32;98877.97;;;10.19;79.43
75996;BME280;64681;49.738;9.004;2023-04-02T04:25:02;98879.03;;;10.02;79.15
75996;BME280;64681;49.738;9.004;2023-04-02T04:33:25;98896.75;;;9.94;79.76
75996;BME280;64681;49.738;9.004;2023-04-02T04:36:01;98897.72;;;10.02;79.61
75996;BME280;64681;49.738;9.004;2023-04-02T04:38:39;98900.06;;;9.91;80.09
75996;BME280;64681;49.738;9.004;2023-04-02T04:41:26;98906.31;;;9.83;79.32
75996;BME280;64681;49.738;9.004;2023-04-02T04:51:44;98915.09;;;9.22;81.92
75996;BME280;64681;49.738;9.004;2023-04-02T04:54:14;98921.97;;;9.47;80.85
75996;BME280;64681;49.738;9.004;2023-04-02T04:56:46;98926.97;;;9.61;80.99
75996;BME280;64681;49.738;9.004;2023-04-02T04:59:28;98921.75;;;9.65;80.22
75996;BME280;64681;49.738;9.004;2023-04-02T05:02:14;98927.63;;;9.21;81.63
75996;BME280;64681;49.738;9.004;2023-04-02T05:04:47;98935.47;;;9.05;82.66
75996;BME280;64681;49.738;9.004;2023-04-02T05:07:20;98935.06;;;9.40;81.58
75996;BME280;64681;49.738;9.004;2023-04-02T05:10:24;98930.88;;;9.64;80.59
75996;BME280;64681;49.738;9.004;2023-04-02T05:13:19;98941.44;;;9.48;81.38
75996;BME280;64681;49.738;9.004;2023-04-02T05:16:08;98945.19;;;9.34;81.22
75996;BME280;64681;49.738;9.004;2023-04-02T05:21:56;98952.75;;;9.57;80.69
75996;BME280;64681;49.738;9.004;2023-04-02T05:26:59;98960.22;;;9.76;80.14
75996;BME280;64681;49.738;9.004;2023-04-02T05:29:33;98969.31;;;9.88;79.31
75996;BME280;64681;49.738;9.004;2023-04-02T05:32:20;98967.84;;;9.90;79.86
75996;BME280;64681;49.738;9.004;2023-04-02T05:34:53;98980.63;;;9.97;79.38
75996;BME280;64681;49.738;9.004;2023-04-02T05:37:23;98978.53;;;10.03;79.30
75996;BME280;64681;49.738;9.004;2023-04-02T05:40:03;98975.50;;;10.04;79.16
75996;BME280;64681;49.738;9.004;2023-04-02T05:42:36;98977.06;;;10.18;78.95
75996;BME280;64681;49.738;9.004;2023-04-02T05:47:47;98989.25;;;10.31;78.78
75996;BME280;64681;49.738;9.004;2023-04-02T05:50:20;98996.38;;;10.39;78.28
75996;BME280;64681;49.738;9.004;2023-04-02T05:55:41;99000.84;;;10.23;79.25
75996;BME280;64681;49.738;9.004;2023-04-02T05:58:23;99008.06;;;10.47;78.51
75996;BME280;64681;49.738;9.004;2023-04-02T06:01:00;99012.50;;;10.55;78.16
75996;BME280;64681;49.738;9.004;2023-04-02T06:03:55;99016.66;;;10.69;78.53
75996;BME280;64681;49.738;9.004;2023-04-02T06:06:26;99017.13;;;10.71;77.70
75996;BME280;64681;49.738;9.004;2023-04-02T06:08:58;99025.88;;;10.71;78.13
75996;BME280;64681;49.738;9.004;2023-04-02T06:11:36;99022.78;;;10.69;77.54
75996;BME280;64681;49.738;9.004;2023-04-02T06:14:10;99027.09;;;10.86;77.51
75996;BME280;64681;49.738;9.004;2023-04-02T06:16:36;99036.94;;;10.98;77.15
75996;BME280;64681;49.738;9.004;2023-04-02T06:19:10;99039.59;;;11.27;75.49
75996;BME280;64681;49.738;9.004;2023-04-02T06:21:47;99038.09;;;11.13;76.15
75996;BME280;64681;49.738;9.004;2023-04-02T06:24:19;99044.75;;;11.19;75.98
75996;BME280;64681;49.738;9.004;2023-04-02T06:26:56;99048.97;;;11.20;76.21
75996;BME280;64681;49.738;9.004;2023-04-02T06:29:32;99052.38;;;11.33;76.37
75996;BME280;64681;49.738;9.004;2023-04-02T06:32:06;99052.63;;;11.44;76.35
75996;BME280;64681;49.738;9.004;2023-04-02T06:34:39;99049.56;;;11.74;75.06
75996;BME280;64681;49.738;9.004;2023-04-02T06:39:54;99058.13;;;11.80;74.35
75996;BME280;64681;49.738;9.004;2023-04-02T06:42:27;99064.00;;;11.85;73.98
75996;BME280;64681;49.738;9.004;2023-04-02T06:44:55;99072.44;;;11.87;73.30
75996;BME280;64681;49.738;9.004;2023-04-02T06:47:41;99076.78;;;12.08;72.74
75996;BME280;64681;49.738;9.004;2023-04-02T06:52:49;99088.69;;;11.95;73.77
75996;BME280;64681;49.738;9.004;2023-04-02T06:58:08;99102.06;;;11.95;73.44
75996;BME280;64681;49.738;9.004;2023-04-02T07:00:39;99107.69;;;12.06;73.72
75996;BME280;64681;49.738;9.004;2023-04-02T07:03:13;99106.47;;;12.19;73.47
75996;BME280;64681;49.738;9.004;2023-04-02T07:05:40;99108.63;;;12.29;73.20
75996;BME280;64681;49.738;9.004;2023-04-02T07:08:05;99113.56;;;12.27;72.99
75996;BME280;64681;49.738;9.004;2023-04-02T07:10:32;99120.72;;;12.39;72.54
75996;BME280;64681;49.738;9.004;2023-04-02T07:12:58;99120.63;;;12.35;72.32
75996;BME280;64681;49.738;9.004;2023-04-02T07:15:27;99121.72;;;12.50;72.09
75996;BME280;64681;49.738;9.004;2023-04-02T07:17:53;99128.94;;;13.02;70.16
75996;BME280;64681;49.738;9.004;2023-04-02T07:20:30;99130.63;;;13.10;70.19
75996;BME280;64681;49.738;9.004;2023-04-02T07:22:56;99137.53;;;13.30;69.48
75996;BME280;64681;49.738;9.004;2023-04-02T07:25:23;99139.69;;;13.21;70.16
75996;BME280;64681;49.738;9.004;2023-04-02T07:27:49;99133.31;;;13.10;70.27
75996;BME280;64681;49.738;9.004;2023-04-02T07:30:15;99153.72;;;13.34;69.76
75996;BME280;64681;49.738;9.004;2023-04-02T07:32:41;99148.09;;;13.39;69.44
75996;BME280;64681;49.738;9.004;2023-04-02T07:35:07;99151.59;;;13.24;69.44
75996;BME280;64681;49.738;9.004;2023-04-02T07:37:35;99153.13;;;13.05;70.73
75996;BME280;64681;49.738;9.004;2023-04-02T07:40:01;99169.00;;;12.94;70.53
75996;BME280;64681;49.738;9.004;2023-04-02T07:42:26;99173.31;;;13.19;70.67
75996;BME280;64681;49.738;9.004;2023-04-02T07:44:52;99172.25;;;13.23;70.75
75996;BME280;64681;49.738;9.004;2023-04-02T07:47:17;99167.72;;;13.43;69.26
75996;BME280;64681;49.738;9.004;2023-04-02T07:49:43;99171.13;;;13.40;69.66
75996;BME280;64681;49.738;9.004;2023-04-02T07:52:10;99170.53;;;13.70;67.75
75996;BME280;64681;49.738;9.004;2023-04-02T07:54:36;99184.16;;;13.61;68.57
75996;BME280;64681;49.738;9.004;2023-04-02T07:57:02;99182.66;;;14.07;67.72
75996;BME280;64681;49.738;9.004;2023-04-02T07:59:28;99187.63;;;14.05;67.24
75996;BME280;64681;49.738;9.004;2023-04-02T08:01:53;99187.91;;;14.46;65.94
75996;BME280;64681;49.738;9.004;2023-04-02T08:04:21;99188.00;;;14.53;65.68
75996;BME280;64681;49.738;9.004;2023-04-02T08:06:48;99185.44;;;14.61;65.45
75996;BME280;64681;49.738;9.004;2023-04-02T08:09:15;99199.47;;;14.74;64.01
75996;BME280;64681;49.738;9.004;2023-04-02T08:11:41;99201.34;;;14.69;64.65
75996;BME280;64681;49.738;9.004;2023-04-02T08:14:08;99205.00;;;14.84;64.92
75996;BME280;64681;49.738;9.004;2023-04-02T08:16:50;99206.66;;;15.19;63.38
75996;BME280;64681;49.738;9.004;2023-04-02T08:19:16;99219.91;;;15.35;63.94
75996;BME280;64681;49.738;9.004;2023-04-02T08:21:42;99221.25;;;14.92;62.66
75996;BME280;64681;49.738;9.004;2023-04-02T08:24:08;99220.25;;;15.30;63.19
75996;BME280;64681;49.738;9.004;2023-04-02T08:26:34;99232.16;;;15.02;62.46
75996;BME280;64681;49.738;9.004;2023-04-02T08:29:00;99229.22;;;15.42;61.70
75996;BME280;64681;49.738;9.004;2023-04-02T08:31:26;99233.53;;;15.50;61.14
75996;BME280;64681;49.738;9.004;2023-04-02T08:33:51;99240.09;;;15.52;62.14
75996;BME280;64681;49.738;9.004;2023-04-02T08:36:19;99244.50;;;15.68;62.19
75996;BME280;64681;49.738;9.004;2023-04-02T08:38:49;99240.53;;;15.85;59.10
75996;BME280;64681;49.738;9.004;2023-04-02T08:41:22;99246.53;;;15.75;58.99
75996;BME280;64681;49.738;9.004;2023-04-02T08:44:08;99250.13;;;15.25;59.17
75996;BME280;64681;49.738;9.004;2023-04-02T08:46:45;99246.22;;;14.92;61.06
75996;BME280;64681;49.738;9.004;2023-04-02T08:49:20;99263.44;;;15.14;61.02
75996;BME280;64681;49.738;9.004;2023-04-02T08:51:51;99260.59;;;15.03;61.07
75996;BME280;64681;49.738;9.004;2023-04-02T08:54:33;99270.66;;;14.60;61.19
75996;BME280;64681;49.738;9.004;2023-04-02T08:59:45;99275.69;;;15.12;61.62
75996;BME280;64681;49.738;9.004;2023-04-02T09:02:34;99276.22;;;14.48;62.18
75996;BME280;64681;49.738;9.004;2023-04-02T09:05:04;99290.75;;;13.29;68.24
75996;BME280;64681;49.738;9.004;2023-04-02T09:07:31;99302.66;;;12.80;70.90
75996;BME280;64681;49.738;9.004;2023-04-02T09:09:59;99301.34;;;12.58;71.08
75996;BME280;64681;49.738;9.004;2023-04-02T09:12:28;99305.03;;;12.09;72.99
75996;BME280;64681;49.738;9.004;2023-04-02T09:17:36;99311.97;;;11.56;74.91
75996;BME280;64681;49.738;9.004;2023-04-02T09:20:20;99311.78;;;11.49;76.29
75996;BME280;64681;49.738;9.004;2023-04-02T09:22:49;99316.78;;;11.38;77.04
75996;BME280;64681;49.738;9.004;2023-04-02T09:25:28;99325.56;;;11.51;75.03
75996;BME280;64681;49.738;9.004;2023-04-02T09:28:00;99335.69;;;10.38;77.63
75996;BME280;64681;49.738;9.004;2023-04-02T09:32:56;99350.91;;;8.75;83.79
75996;BME280;64681;49.738;9.004;2023-04-02T09:35:28;99356.78;;;8.98;82.85
75996;BME280;64681;49.738;9.004;2023-04-02T09:40:59;99368.69;;;8.92;81.96
75996;BME280;64681;49.738;9.004;2023-04-02T09:43:31;99378.72;;;9.34;79.41
75996;BME280;64681;49.738;9.004;2023-04-02T09:46:15;99380.31;;;9.35;80.15
75996;BME280;64681;49.738;9.004;2023-04-02T09:51:31;99388.28;;;9.35;77.62
75996;BME280;64681;49.738;9.004;2023-04-02T09:56:29;99401.84;;;9.12;80.82
75996;BME280;64681;49.738;9.004;2023-04-02T09:59:14;99407.94;;;9.22;80.60
75996;BME280;64681;49.738;9.004;2023-04-02T10:01:42;99418.50;;;9.00;81.14
75996;BME280;64681;49.738;9.004;2023-04-02T10:07:03;99426.81;;;10.06;76.25
75996;BME280;64681;49.738;9.004;2023-04-02T10:09:36;99426.94;;;10.10;77.31
75996;BME280;64681;49.738;9.004;2023-04-02T10:12:11;99441.13;;;9.33;76.84
75996;BME280;64681;49.738;9.004;2023-04-02T10:14:45;99444.44;;;9.30;77.34
75996;BME280;64681;49.738;9.004;2023-04-02T10:17:32;99447.38;;;9.37;76.93
75996;BME280;64681;49.738;9.004;2023-04-02T10:20:17;99456.81;;;9.26;76.76
75996;BME280;64681;49.738;9.004;2023-04-02T10:22:45;99460.75;;;9.97;76.48
75996;BME280;64681;49.738;9.004;2023-04-02T10:25:15;99455.59;;;10.43;74.47
75996;BME280;64681;49.738;9.004;2023-04-02T10:27:55;99469.97;;;10.29;73.94
75996;BME280;64681;49.738;9.004;2023-04-02T10:30:53;99479.38;;;9.37;76.06
75996;BME280;64681;49.738;9.004;2023-04-02T10:33:29;99485.69;;;9.15;75.25
75996;BME280;64681;49.738;9.004;2023-04-02T10:36:22;99478.78;;;9.14;74.87
75996;BME280;64681;49.738;9.004;2023-04-02T10:39:02;99492.56;;;9.16;75.67
75996;BME280;64681;49.738;9.004;2023-04-02T10:41:38;99489.00;;;8.59;77.62
75996;BME280;64681;49.738;9.004;2023-04-02T10:52:23;99524.94;;;8.30;76.43
75996;BME280;64681;49.738;9.004;2023-04-02T10:54:54;99529.16;;;8.22;75.99
75996;BME280;64681;49.738;9.004;2023-04-02T10:57:38;99530.75;;;8.41;75.66
75996;BME280;64681;49.738;9.004;2023-04-02T11:07:57;99538.84;;;8.76;74.21
75996;BME280;64681;49.738;9.004;2023-04-02T11:10:25;99552.69;;;8.38;76.06
75996;BME280;64681;49.738;9.004;2023-04-02T11:13:01;99537.72;;;8.95;76.10
75996;BME280;64681;49.738;9.004;2023-04-02T11:15:29;99553.38;;;8.87;75.44
75996;BME280;64681;49.738;9.004;2023-04-02T11:17:55;99557.97;;;9.70;72.95
75996;BME280;64681;49.738;9.004;2023-04-02T11:20:58;99559.03;;;9.86;73.27
75996;BME280;64681;49.738;9.004;2023-04-02T11:23:31;99566.41;;;9.80;71.92
75996;BME280;64681;49.738;9.004;2023-04-02T11:31:47;99570.78;;;8.85;74.92
75996;BME280;64681;49.738;9.004;2023-04-02T11:37:28;99582.56;;;8.35;77.73
75996;BME280;64681;49.738;9.004;2023-04-02T11:39:56;99579.13;;;8.34;78.96
75996;BME280;64681;49.738;9.004;2023-04-02T11:42:34;99592.09;;;9.11;76.53
75996;BME280;64681;49.738;9.004;2023-04-02T11:50:33;99608.38;;;9.27;73.05
75996;BME280;64681;49.738;9.004;2023-04-02T11:53:28;99616.66;;;9.52;71.97
75996;BME280;64681;49.738;9.004;2023-04-02T11:56:08;99627.78;;;8.93;73.98
75996;BME280;64681;49.738;9.004;2023-04-02T12:10:23;99649.44;;;9.00;73.09
75996;BME280;64681;49.738;9.004;2023-04-02T12:12:52;99661.41;;;8.62;75.05
75996;BME280;64681;49.738;9.004;2023-04-02T12:15:35;99662.91;;;9.21;71.26
75996;BME280;64681;49.738;9.004;2023-04-02T12:20:34;99664.28;;;8.83;72.92
75996;BME280;64681;49.738;9.004;2023-04-02T12:23:01;99661.75;;;8.69;72.80
75996;BME280;64681;49.738;9.004;2023-04-02T12:25:36;99664.97;;;9.42;71.64
75996;BME280;64681;49.738;9.004;2023-04-02T12:28:16;99672.00;;;9.46;70.46
75996;BME280;64681;49.738;9.004;2023-04-02T12:30:46;99677.03;;;9.30;69.36
75996;BME280;64681;49.738;9.004;2023-04-02T12:33:26;99688.31;;;9.27;69.26
75996;BME280;64681;49.738;9.004;2023-04-02T12:36:00;99687.38;;;9.23;69.32
75996;BME280;64681;49.738;9.004;2023-04-02T12:38:29;99688.66;;;9.61;69.12
75996;BME280;64681;49.738;9.004;2023-04-02T12:41:00;99696.16;;;9.41;69.71
75996;BME280;64681;49.738;9.004;2023-04-02T12:43:29;99695.84;;;9.60;67.62
75996;BME280;64681;49.738;9.004;2023-04-02T12:45:58;99698.66;;;9.46;69.91
75996;BME280;64681;49.738;9.004;2023-04-02T12:48:26;99690.69;;;9.55;68.34
75996;BME280;64681;49.738;9.004;2023-04-02T12:50:54;99697.25;;;9.31;69.59
75996;BME280;64681;49.738;9.004;2023-04-02T12:53:25;99702.41;;;9.89;68.34
75996;BME280;64681;49.738;9.004;2023-04-02T12:55:53;99714.97;;;10.63;66.22
75996;BME280;64681;49.738;9.004;2023-04-02T12:58:41;99709.66;;;11.14;64.35
75996;BME280;64681;49.738;9.004;2023-04-02T13:01:16;99707.75;;;9.98;67.27
75996;BME280;64681;49.738;9.004;2023-04-02T13:06:29;99726.59;;;10.58;66.59
75996;BME280;64681;49.738;9.004;2023-04-02T13:08:59;99724.03;;;10.23;67.32
75996;BME280;64681;49.738;9.004;2023-04-02T13:11:40;99726.09;;;9.29;69.20
75996;BME280;64681;49.738;9.004;2023-04-02T13:14:17;99734.03;;;8.54;71.92
75996;BME280;64681;49.738;9.004;2023-04-02T13:16:44;99731.69;;;9.10;70.84
75996;BME280;64681;49.738;9.004;2023-04-02T13:21:42;99730.44;;;9.08;70.45
75996;BME280;64681;49.738;9.004;2023-04-02T13:24:27;99737.03;;;9.10;70.93
75996;BME280;64681;49.738;9.004;2023-04-02T13:26:59;99741.94;;;8.77;72.24
75996;BME280;64681;49.738;9.004;2023-04-02T13:31:59;99748.28;;;8.35;72.95
75996;BME280;64681;49.738;9.004;2023-04-02T13:34:26;99727.00;;;8.58;72.05
75996;BME280;64681;49.738;9.004;2023-04-02T13:36:52;99751.69;;;8.81;71.38
75996;BME280;64681;49.738;9.004;2023-04-02T13:39:18;99750.94;;;8.35;73.46
75996;BME280;64681;49.738;9.004;2023-04-02T13:41:58;99758.84;;;8.18;73.15
75996;BME280;64681;49.738;9.004;2023-04-02T13:44:32;99762.34;;;8.81;71.83
75996;BME280;64681;49.738;9.004;2023-04-02T13:46:59;99757.69;;;8.96;71.35
75996;BME280;64681;49.738;9.004;2023-04-02T13:49:25;99764.22;;;8.49;72.02
75996;BME280;64681;49.738;9.004;2023-04-02T13:51:57;99773.97;;;8.08;73.87
75996;BME280;64681;49.738;9.004;2023-04-02T13:54:46;99777.41;;;8.95;69.69
75996;BME280;64681;49.738;9.004;2023-04-02T13:57:14;99771.66;;;9.01;70.28
75996;BME280;64681;49.738;9.004;2023-04-02T13:59:40;99770.34;;;8.50;69.94
75996;BME280;64681;49.738;9.004;2023-04-02T14:02:14;99779.41;;;8.89;69.00
75996;BME280;64681;49.738;9.004;2023-04-02T14:04:48;99761.63;;;8.58;70.40
75996;BME280;64681;49.738;9.004;2023-04-02T14:07:20;99779.38;;;9.21;69.77
75996;BME280;64681;49.738;9.004;2023-04-02T14:09:59;99786.56;;;8.71;70.07
75996;BME280;64681;49.738;9.004;2023-04-02T14:24:07;99811.31;;;7.67;74.72
75996;BME280;64681;49.738;9.004;2023-04-02T14:27:25;99820.44;;;8.11;73.84
75996;BME280;64681;49.738;9.004;2023-04-02T14:30:04;99824.59;;;7.81;73.87
75996;BME280;64681;49.738;9.004;2023-04-02T14:48:18;99827.16;;;8.08;70.11
75996;BME280;64681;49.738;9.004;2023-04-02T14:50:47;99831.31;;;8.01;70.18
75996;BME280;64681;49.738;9.004;2023-04-02T14:53:21;99840.75;;;7.70;72.19
75996;BME280;64681;49.738;9.004;2023-04-02T14:55:51;99838.66;;;8.18;71.34
75996;BME280;64681;49.738;9.004;2023-04-02T14:58:25;99842.84;;;8.55;69.86
75996;BME280;64681;49.738;9.004;2023-04-02T15:01:10;99851.63;;;7.97;71.84
75996;BME280;64681;49.738;9.004;2023-04-02T15:03:57;99840.81;;;8.52;69.49
75996;BME280;64681;49.738;9.004;2023-04-02T15:06:39;99846.88;;;8.76;69.28
75996;BME280;64681;49.738;9.004;2023-04-02T15:12:23;99866.41;;;8.71;67.37
75996;BME280;64681;49.738;9.004;2023-04-02T15:14:57;99865.34;;;8.49;67.75
75996;BME280;64681;49.738;9.004;2023-04-02T15:17:26;99874.28;;;8.31;68.44
75996;BME280;64681;49.738;9.004;2023-04-02T15:20:11;99876.06;;;7.71;69.61
75996;BME280;64681;49.738;9.004;2023-04-02T15:23:03;99873.44;;;7.57;70.94
75996;BME280;64681;49.738;9.004;2023-04-02T15:28:27;99890.13;;;8.36;68.32
75996;BME280;64681;49.738;9.004;2023-04-02T15:30:58;99889.81;;;8.01;69.06
75996;BME280;64681;49.738;9.004;2023-04-02T15:42:25;99905.81;;;7.59;69.11
75996;BME280;64681;49.738;9.004;2023-04-02T15:52:39;99912.91;;;7.50;69.09
75996;BME280;64681;49.738;9.004;2023-04-02T15:55:35;99911.56;;;6.91;70.34
75996;BME280;64681;49.738;9.004;2023-04-02T16:04:44;99931.75;;;8.18;65.96
75996;BME280;64681;49.738;9.004;2023-04-02T16:12:40;99935.25;;;8.04;65.47
75996;BME280;64681;49.738;9.004;2023-04-02T16:18:10;99951.88;;;7.68;67.17
75996;BME280;64681;49.738;9.004;2023-04-02T16:20:42;99955.50;;;7.44;68.34
75996;BME280;64681;49.738;9.004;2023-04-02T16:23:14;99957.09;;;7.45;69.39
75996;BME280;64681;49.738;9.004;2023-04-02T16:25:56;99961.91;;;7.99;66.19
75996;BME280;64681;49.738;9.004;2023-04-02T16:28:32;99967.84;;;7.82;67.10
75996;BME280;64681;49.738;9.004;2023-04-02T16:31:07;99966.16;;;7.58;67.37
75996;BME280;64681;49.738;9.004;2023-04-02T16:34:19;99976.72;;;7.17;68.61
75996;BME280;64681;49.738;9.004;2023-04-02T16:36:58;99976.91;;;6.87;69.52
75996;BME280;64681;49.738;9.004;2023-04-02T16:39:32;99982.53;;;7.19;68.89
75996;BME280;64681;49.738;9.004;2023-04-02T16:44:57;99985.16;;;6.28;72.24
75996;BME280;64681;49.738;9.004;2023-04-02T16:47:46;100004.03;;;6.02;72.75
75996;BME280;64681;49.738;9.004;2023-04-02T16:52:57;100008.31;;;6.99;68.01
75996;BME280;64681;49.738;9.004;2023-04-02T16:55:48;100015.22;;;6.81;69.00
75996;BME280;64681;49.738;9.004;2023-04-02T16:58:30;100018.00;;;6.52;68.98
75996;BME280;64681;49.738;9.004;2023-04-02T17:06:45;100028.47;;;7.19;66.87
75996;BME280;64681;49.738;9.004;2023-04-02T17:09:17;100042.06;;;6.99;67.44
75996;BME280;64681;49.738;9.004;2023-04-02T17:11:53;100040.75;;;7.15;66.94
75996;BME280;64681;49.738;9.004;2023-04-02T17:14:29;100041.19;;;6.65;67.73
75996;BME280;64681;49.738;9.004;2023-04-02T17:17:02;100046.75;;;6.44;68.90
75996;BME280;64681;49.738;9.004;2023-04-02T17:19:30;100059.25;;;6.63;68.34
75996;BME280;64681;49.738;9.004;2023-04-02T17:22:00;100067.72;;;6.22;69.52
75996;BME280;64681;49.738;9.004;2023-04-02T17:24:48;100082.22;;;6.73;66.43
75996;BME280;64681;49.738;9.004;2023-04-02T17:27:27;100075.91;;;6.69;67.21
75996;BME280;64681;49.738;9.004;2023-04-02T17:30:04;100094.75;;;6.24;67.50
75996;BME280;64681;49.738;9.004;2023-04-02T17:32:36;100092.72;;;6.40;66.96
75996;BME280;64681;49.738;9.004;2023-04-02T17:38:07;100106.34;;;6.04;67.63
75996;BME280;64681;49.738;9.004;2023-04-02T17:41:11;100110.34;;;6.01;68.55
75996;BME280;64681;49.738;9.004;2023-04-02T17:46:53;100135.28;;;5.65;68.58
75996;BME280;64681;49.738;9.004;2023-04-02T17:52:15;100151.25;;;5.90;66.89
75996;BME280;64681;49.738;9.004;2023-04-02T17:54:54;100147.66;;;5.35;67.10
75996;BME280;64681;49.738;9.004;2023-04-02T17:57:37;100151.22;;;5.95;65.57
75996;BME280;64681;49.738;9.004;2023-04-02T18:00:28;100149.84;;;5.97;64.84